Galway Airport

EICM · Connacht, Irlande (pays)

6 octobre 2022

Temps Code Temps Temp. Vue Base cloud Vent METAR/SPECI
18:30
V
15 °C 10 km+ - 220° 220° 15 kt METAR EINN 061730Z 22015KT 9999 FEW012 SCT060 15/12 Q1019 NOSIG
18:00
V
15 °C 10 km+ 6.000 ft 220° 220° 14 kt METAR EINN 061700Z 22014KT 9999 -SHRA FEW012 BKN060 15/12 Q1019 NOSIG
17:30
V
16 °C 10 km+ - 230° 230° 16 kt METAR EINN 061630Z 23016KT 9999 FEW012 FEW018CB SCT040 16/12 Q1019 NOSIG
17:00
V
15 °C 10 km+ 4.500 ft 230° 230° 21 kt METAR EINN 061600Z 23021KT 9999 FEW012 FEW018CB SCT022 BKN045 15/12 Q1019 NOSIG
16:30
V
15 °C 10 km+ 4.400 ft 240° 240° 18 - 30 kt METAR EINN 061530Z 24018G30KT 9999 -SHRA FEW018CB SCT023 BKN044 15/13 Q1020 NOSIG
16:00
V
17 °C 10 km+ - 230° 230° 18 kt METAR EINN 061500Z 23018KT 9999 FEW018CB SCT040 17/12 Q1020 NOSIG
15:30
V
16 °C 10 km+ - 230° 230° 14 kt METAR EINN 061430Z 23014KT 9999 FEW013 FEW018CB SCT050 16/13 Q1020 NOSIG
15:00
V
16 °C 10 km+ - 230° 230° 17 kt METAR EINN 061400Z 23017KT 9999 FEW012 FEW018CB SCT040 16/12 Q1020 NOSIG
14:30
V
17 °C 10 km+ - 230° 230° 19 kt METAR EINN 061330Z 23019KT 9999 FEW015 17/12 Q1020 NOSIG
14:00
M
16 °C 10 km+ 2.800 ft 220° 220° 17 - 27 kt METAR EINN 061300Z 22017G27KT 9999 -SHRA FEW015 BKN028 16/13 Q1021 NOSIG
13:30
V
16 °C 10 km+ 7.000 ft 230° 230° 16 kt METAR EINN 061230Z 23016KT 9999 FEW014 SCT029 BKN070 16/12 Q1021 NOSIG
13:00
V
14 °C 10 km+ 4.000 ft 230° 230° 15 kt METAR EINN 061200Z 23015KT 9999 SCT014 BKN040 14/13 Q1021 NOSIG
12:30
M
15 °C 9 km 1.500 ft 230° 230° 15 kt METAR EINN 061130Z 23015KT 9000 -SHRA BKN015 BKN030 15/13 Q1022 NOSIG
12:00
V
15 °C 10 km+ 4.000 ft 220° 220° 15 kt METAR EINN 061100Z 22015KT 9999 -SHRA SCT017 BKN040 15/13 Q1022 NOSIG
11:30
V
16 °C 10 km+ 3.900 ft 220° 220° 15 kt METAR EINN 061030Z 22015KT 9999 SCT017 BKN039 16/13 Q1022 NOSIG
11:00
V
16 °C 10 km+ 14.000 ft 230° 230° 17 kt METAR EINN 061000Z 23017KT 9999 FEW017 SCT048 BKN140 16/12 Q1022 NOSIG
10:30
V
16 °C 10 km+ 14.000 ft 230° 230° 17 kt METAR EINN 060930Z 23017KT 9999 FEW017 SCT048 BKN140 16/13 Q1021 NOSIG
10:00
V
15 °C 10 km+ 4.500 ft 220° 220° 14 kt METAR EINN 060900Z 22014KT 9999 VCSH SCT017 BKN045 15/12 Q1021 NOSIG
09:30
V
15 °C 10 km+ 4.800 ft 220° 220° 13 kt METAR EINN 060830Z 22013KT 9999 FEW010 SCT019 BKN048 15/13 Q1021 NOSIG
09:00
V
15 °C 10 km+ 4.800 ft 230° 230° 19 kt METAR EINN 060800Z 23019KT 9999 FEW010 SCT016 BKN048 15/12 Q1021 NOSIG
08:30
V
14 °C 10 km+ 4.800 ft 220° 220° 13 kt METAR EINN 060730Z 22013KT 9999 -SHRA FEW007 SCT012 BKN048 14/13 Q1021 NOSIG
08:00
V
14 °C 10 km+ 3.800 ft 230° 230° 15 kt METAR EINN 060700Z 23015KT 9999 FEW007 SCT012 BKN038 14/13 Q1021 NOSIG
07:30
M
15 °C 10 km+ 1.500 ft 220° 220° 13 kt METAR EINN 060630Z 22013KT 9999 FEW012 BKN015 BKN050 15/12 Q1021 NOSIG
07:00
M
14 °C 10 km+ 1.500 ft 230° 230° 13 kt METAR EINN 060600Z 23013KT 9999 BKN015 BKN060 14/12 Q1021 NOSIG
06:30
M
15 °C 10 km+ 1.500 ft 230° 230° 14 kt METAR EINN 060530Z 23014KT 9999 BKN015 BKN070 15/12 Q1021 NOSIG
06:00
M
15 °C 10 km+ 2.400 ft 240° 240° 17 kt METAR EINN 060500Z 24017KT 9999 SCT016 BKN024 15/12 Q1020 NOSIG
05:30
M
15 °C 10 km+ 2.700 ft 240° 240° 17 kt METAR EINN 060430Z 24017KT 9999 FEW016 BKN027 15/12 Q1020 NOSIG
05:00
M
15 °C 10 km+ 2.400 ft 230° 230° 16 kt METAR EINN 060400Z 23016KT 9999 SCT016 BKN024 BKN060 15/12 Q1020 NOSIG
04:30
M
15 °C 10 km+ 2.200 ft 230° 230° 18 kt METAR EINN 060330Z 23018KT 9999 SCT017 BKN022 15/12 Q1020 NOSIG
04:00
M
14 °C 10 km+ 2.100 ft 220° 220° 16 kt METAR EINN 060300Z 22016KT 9999 SCT017 BKN021 14/11 Q1020 NOSIG
03:30
M
14 °C 10 km+ 2.400 ft 210° 210° 13 kt METAR EINN 060230Z 21013KT 9999 FEW020 BKN024 14/11 Q1020 NOSIG
03:00
M
13 °C 10 km+ 2.500 ft 200° 200° 14 kt METAR EINN 060200Z 20014KT 9999 FEW021 BKN025 13/10 Q1020 NOSIG
02:30
M
12 °C 10 km+ 2.800 ft 200° 200° 13 kt METAR EINN 060130Z 20013KT 9999 -SHRA FEW012 SCT021 BKN028 12/10 Q1020 NOSIG
02:00
V
12 °C 10 km+ 5.000 ft 200° 200° 12 kt METAR EINN 060100Z 20012KT 9999 FEW025 BKN050 12/09 Q1020 NOSIG
01:30
V
12 °C 10 km+ 4.500 ft 210° 210° 13 kt METAR EINN 060030Z 21013KT 9999 -SHRA SCT024 BKN045 12/09 Q1020 NOSIG
01:00
V
12 °C 10 km+ 3.500 ft 210° 210° 12 kt METAR EINN 060000Z 21012KT 9999 FEW025 BKN035 12/08 Q1020 NOSIG
00:30
V
11 °C 10 km+ 3.500 ft 210° 210° 12 kt METAR EINN 052330Z 21012KT 9999 FEW026 BKN035 11/08 Q1020 NOSIG
00:00
V
11 °C 10 km+ 3.600 ft 210° 210° 11 kt METAR EINN 052300Z 21011KT 9999 FEW028 BKN036 11/08 Q1020 NOSIG

5 octobre 2022

Temps Code Temps Temp. Vue Base cloud Vent METAR/SPECI
23:30
V
11 °C 10 km+ 5.000 ft 210° 210° 10 kt METAR EINN 052230Z 21010KT 9999 FEW035 BKN050 11/08 Q1020 NOSIG
23:00
V
11 °C 10 km+ - 220° 220° 9 kt METAR EINN 052200Z 22009KT 9999 SCT045 11/07 Q1019 NOSIG
22:30
V
11 °C 10 km+ - 250° 250° 9 kt METAR EINN 052130Z 25009KT 9999 FEW018CB 11/07 Q1019 NOSIG
22:00
V
12 °C 10 km+ 5.000 ft 250° 250° 10 kt METAR EINN 052100Z 25010KT 9999 FEW018CB BKN050 12/08 Q1019 NOSIG
21:30
V
11 °C 10 km+ - 250° 250° 10 kt METAR EINN 052030Z 25010KT 9999 FEW018CB SCT045 11/08 Q1018 NOSIG
21:00
V
11 °C 10 km+ - 260° 260° 14 kt METAR EINN 052000Z 26014KT 9999 -SHRA FEW018CB SCT045 11/07 Q1018 NOSIG
20:30
V
11 °C 8 km 3.600 ft 250° 250° 17 kt METAR EINN 051930Z 25017KT 8000 -SHRA FEW018CB BKN036 11/08 Q1017 NOSIG
20:00
V
11 °C 10 km+ - 240° 240° 8 kt METAR EINN 051900Z 24008KT 9999 FEW018CB 11/07 Q1017 NOSIG
19:30
V
11 °C 10 km+ - 260° 260° 10 kt METAR EINN 051830Z 26010KT 9999 FEW014 FEW018CB 11/07 Q1016 NOSIG
19:00
V
11 °C 10 km+ - 260° 260° 9 kt METAR EINN 051800Z 26009KT 9999 FEW014 FEW018CB 11/07 Q1015 NOSIG
18:30
V
12 °C 10 km+ - 270° 270° 12 kt METAR EINN 051730Z 27012KT 9999 -SHRA FEW018CB SCT060 12/08 Q1015 NOSIG
18:00
V
12 °C 10 km+ - 270° 270° 13 kt METAR EINN 051700Z 27013KT 9999 FEW014 FEW018CB 12/08 Q1014 NOSIG
17:30
V
11 °C 10 km+ - 270° 270° 13 kt METAR EINN 051630Z 27013KT 9999 FEW014 FEW018CB 11/08 Q1013 NOSIG
17:00
M
13 °C 6 km 3.000 ft 290° 290° 15 kt METAR EINN 051600Z 29015KT 6000 SHRAGS FEW012 SCT018CB BKN030 13/08 Q1012 TEMPO 3000 SHRA
16:30
V
12 °C 8 km 4.000 ft 260° 260° 22 kt METAR EINN 051530Z 26022KT 8000 -SHRA SCT018CB BKN040 12/08 Q1012 TEMPO 3000 SHRA
16:00
V
13 °C 10 km+ - 260° 260° 15 kt METAR EINN 051500Z 26015KT 9999 FEW015 FEW018CB SCT050 13/08 Q1011 TEMPO 3000 SHRA
15:30
V
11 °C 10 km+ 5.000 ft 260° 260° 19 kt METAR EINN 051430Z 26019KT 9999 FEW014 FEW018CB BKN050 11/07 Q1010 TEMPO 3000 SHRA
15:00
M
12 °C 7 km 4.000 ft 300° 300° 24 kt METAR EINN 051400Z 30024KT 7000 VCSH FEW009 SCT018CB BKN040 12/08 Q1009 TEMPO 3000 SHRA
14:30
M
10 °C 7 km - 260° 260° 22 kt METAR EINN 051330Z 26022KT 7000 FEW010 SCT018CB 10/07 Q1009 RESHRAGS TEMPO 3000 SHRA
14:00
V
14 °C 10 km+ - 260° 260° 22 kt METAR EINN 051300Z 26022KT 9999 FEW018CB 14/06 Q1008 TEMPO 3000 SHRA
13:30
V
13 °C 10 km+ - 260° 260° 18 - 31 kt METAR EINN 051230Z 26018G31KT 9999 FEW018CB 13/07 Q1008 TEMPO 3000 SHRA
13:00
V
12 °C 10 km+ - 260° 260° 16 kt METAR EINN 051200Z 26016KT 9999 FEW010 SCT018CB 12/07 Q1007 WS RWY24 TEMPO 3000 SHRA
12:30
V
12 °C 10 km+ - 250° 250° 19 - 32 kt METAR EINN 051130Z 25019G32KT 9999 FEW010 FEW018CB SCT020 12/06 Q1006 WS RWY24 TEMPO 3000 SHRA
12:00
V
12 °C 10 km+ - 220° 220° 15 kt METAR EINN 051100Z 22015KT 9999 FEW020CB 12/08 Q1006 WS RWY24 TEMPO 3000 SHRA
11:30
V
11 °C 10 km+ - 240° 240° 14 kt METAR EINN 051030Z 24014KT 9999 FEW010 FEW020CB SCT060 11/08 Q1006 WS RWY24 TEMPO 3000 SHRA
11:00
I
11 °C 4 km 4.000 ft 230° 230° 18 - 35 kt METAR EINN 051000Z 23018G35KT 4000 SHRA FEW009 SCT020CB BKN040 11/09 Q1006 BECMG 9999 NSW
10:30
V
11 °C 10 km+ 8.000 ft 230° 230° 12 kt METAR EINN 050930Z 23012KT 9999 FEW012 FEW020CB SCT050 BKN080 11/09 Q1005 TEMPO 3000 SHRA
10:00
I
11 °C 3,5 km 4.000 ft 240° 240° 14 - 37 kt METAR EINN 050900Z 24014G37KT 3500 SHRA FEW012 SCT020CB BKN040 11/09 Q1005 BECMG 9999 NSW
09:30
V
11 °C 10 km+ 9.000 ft 260° 260° 9 kt METAR EINN 050830Z 26009KT 9999 FEW015 SCT060 BKN090 11/09 Q1004 NOSIG
09:00
V
11 °C 10 km+ 4.600 ft 250° 250° 11 kt METAR EINN 050800Z 25011KT 9999 FEW012 SCT022 BKN046 11/10 Q1004 NOSIG
08:30
M
11 °C 7 km 5.000 ft 250° 250° 13 kt METAR EINN 050730Z 25013KT 7000 -SHRA FEW009 SCT016 BKN050 11/10 Q1003 NOSIG
08:00
M
11 °C 5 km 3.000 ft 220° 220° 9 kt METAR EINN 050700Z 22009KT 5000 -RA FEW009 SCT015 BKN030 11/10 Q1002 NOSIG
07:30
V
11 °C 10 km+ 5.000 ft 190° 190° 6 kt METAR EINN 050630Z 19006KT 9999 -RA FEW008 SCT025 BKN050 11/10 Q1002 NOSIG
07:00
V
11 °C 10 km+ 10.000 ft 180° 180° 6 kt METAR EINN 050600Z 18006KT 9999 FEW025 BKN100 11/10 Q1002 NOSIG
06:30
V
11 °C 10 km+ 8.000 ft 190° 190° 7 kt METAR EINN 050530Z 19007KT 9999 FEW012 SCT060 BKN080 11/10 Q1002 NOSIG
06:00
V
11 °C 10 km+ 7.000 ft 220° 220° 7 kt METAR EINN 050500Z 22007KT 9999 -RA FEW010 BKN070 11/10 Q1002 NOSIG
05:30
V
11 °C 10 km+ 6.000 ft 240° 240° 10 kt METAR EINN 050430Z 24010KT 9999 -RA FEW009 BKN060 11/10 Q1002 NOSIG
05:00
V
12 °C 10 km+ 6.000 ft 250° 250° 8 kt METAR EINN 050400Z 25008KT 9999 -RA FEW007 BKN060 12/11 Q1002 NOSIG
04:30
V
12 °C 10 km+ 6.000 ft 250° 250° 8 kt METAR EINN 050330Z 25008KT 9999 -RA FEW008 SCT028 BKN060 12/12 Q1002 NOSIG
04:00
M
12 °C 6 km 2.600 ft 260° 260° 6 kt METAR EINN 050300Z 26006KT 6000 -RA FEW007 SCT014 BKN026 12/12 Q1002 RERA NOSIG
03:30
V
13 °C 10 km+ 3.600 ft 260° 260° 6 kt METAR EINN 050230Z 26006KT 9999 -RA FEW008 SCT026 BKN036 13/12 Q1002 NOSIG
03:00
V
13 °C 10 km+ 5.000 ft 260° 260° 5 kt METAR EINN 050200Z 26005KT 9999 -RA FEW008 SCT025 BKN050 13/12 Q1002 NOSIG
02:30
V
13 °C 10 km+ 6.000 ft 260° 260° 9 kt METAR EINN 050130Z 26009KT 9999 -RA FEW007 SCT018 BKN060 13/13 Q1002 NOSIG
02:00
V
14 °C 10 km+ 5.000 ft 250° 250° 9 kt METAR EINN 050100Z 25009KT 9999 -RA FEW008 SCT025 BKN050 14/13 Q1002 NOSIG
01:30
V
14 °C 10 km+ 4.200 ft 250° 250° 11 kt METAR EINN 050030Z 25011KT 9999 -RA FEW012 SCT025 BKN042 14/13 Q1002 NOSIG
01:00
M
14 °C 8 km 1.500 ft 240° 240° 10 kt METAR EINN 050000Z 24010KT 8000 -RA FEW005 SCT010 BKN015 14/13 Q1002 NOSIG
00:30
M
14 °C 9 km 1.600 ft 250° 250° 11 kt METAR EINN 042330Z 25011KT 9000 -RA FEW008 BKN016 BKN035 14/14 Q1002 NOSIG
00:00
M
14 °C 8 km 2.800 ft 250° 250° 10 kt METAR EINN 042300Z 25010KT 8000 -RA FEW008 SCT012 BKN028 14/13 Q1002 NOSIG

4 octobre 2022

Temps Code Temps Temp. Vue Base cloud Vent METAR/SPECI
23:30
M
14 °C 6 km 1.000 ft 220° 220° 11 kt METAR EINN 042230Z 22011KT 6000 -RA SCT007 BKN010 BKN021 14/14 Q1002 TEMPO BKN007
23:00
I
14 °C 4 km 1.100 ft 200° 200° 11 kt METAR EINN 042200Z 20011KT 4000 -RA FEW007 BKN011 BKN015 14/14 Q1002 TEMPO BKN007
22:30
M
14 °C 5 km 1.400 ft 190° 190° 11 kt METAR EINN 042130Z 19011KT 5000 -RA FEW008 BKN014 BKN020 14/14 Q1002 TEMPO BKN007
22:00
M
14 °C 6 km 2.100 ft 190° 190° 12 kt METAR EINN 042100Z 19012KT 6000 -RADZ FEW008 SCT018 OVC021 14/14 Q1003 TEMPO BKN007
21:30
M
14 °C 7 km 3.200 ft 190° 190° 14 kt METAR EINN 042030Z 19014KT 7000 -RADZ FEW008 SCT024 BKN032 14/14 Q1003 TEMPO BKN007
21:00
I
15 °C 4 km 3.000 ft 200° 200° 15 kt METAR EINN 042000Z 20015KT 4000 -RADZ FEW008 SCT025 OVC030 15/13 Q1003 TEMPO BKN007
20:30
I
14 °C 4 km 2.900 ft 170° 170° 7 kt METAR EINN 041930Z 17007KT 4000 -RA FEW008 BKN029 14/13 Q1003 TEMPO BKN007
20:00
V
14 °C 10 km+ 3.800 ft 150° 150° 9 kt METAR EINN 041900Z 15009KT 9999 -RA FEW008 BKN038 14/13 Q1003 TEMPO BKN007
19:30
V
14 °C 10 km+ 3.800 ft 170° 170° 9 kt METAR EINN 041830Z 17009KT 9999 -RA FEW008 BKN038 14/13 Q1004 TEMPO BKN007
19:00
V
15 °C 10 km+ 4.000 ft 180° 180° 10 kt METAR EINN 041800Z 18010KT 9999 -RA FEW008 SCT015 BKN040 15/14 Q1004 TEMPO 3000 BKN007
18:30
M
15 °C 10 km+ 2.800 ft 180° 180° 12 kt METAR EINN 041730Z 18012KT 9999 -RA FEW008 SCT015 BKN028 15/14 Q1004 TEMPO 3000 BKN007
18:00
V
15 °C 10 km+ 3.000 ft 160° 160° 6 kt METAR EINN 041700Z 16006KT 9999 -RA FEW008 SCT015 BKN030 15/14 Q1005 TEMPO 3000 BKN007
17:30
V
15 °C 10 km+ 3.000 ft 150° 150° 5 kt METAR EINN 041630Z 15005KT 9999 -RA FEW006 SCT015 BKN030 15/14 Q1005 TEMPO 3000
17:00
M
15 °C 8 km 1.800 ft 160° 160° 6 kt METAR EINN 041600Z 16006KT 8000 -RADZ FEW006 SCT010 BKN018 15/14 Q1006 TEMPO 3000
16:30
M
15 °C 10 km+ 1.800 ft 160° 160° 7 kt METAR EINN 041530Z 16007KT 9999 -DZ FEW006 SCT010 BKN018 15/14 Q1006 TEMPO 3000
16:00
M
15 °C 10 km+ 1.800 ft 190° 190° 6 kt METAR EINN 041500Z 19006KT 9999 FEW005 SCT008 BKN018 15/13 Q1006 TEMPO 3000
Données plus anciennes

Nous et des tiers suivons ton comportement sur Internet sur notre site Web à l'aide de cookies. Si tu continues, nous supposons que tu acceptes notre politique en matière de cookies. Apprendre plus